Time;durP1;ratioP1;P1;durP2;ratioP2;P2;SDS_P1;SDS_P2;PMS_P1;PMS_P2;Temp;Humidity;BMP_temperature;BMP_pressure;BME280_temperature;BME280_humidity;BME280_pressure;Samples;Min_cycle;Max_cycle;Signal;HPM_P1;HPM_P2
2023/12/25 00:00:40;;;;;;;1.23;0.50;;;;;;;;;;2027375;29;20047;-53
2023/12/25 00:01:41;;;;;;;0.80;0.38;;;;;;;;;;2027111;29;20040;-53
2023/12/25 00:02:42;;;;;;;1.33;0.60;;;;;;;;;;2026061;29;20041;-53
2023/12/25 00:03:42;;;;;;;0.75;0.45;;;;;;;;;;2026955;29;20048;-53
2023/12/25 00:04:43;;;;;;;1.50;0.60;;;;;;;;;;2026238;29;20495;-53
2023/12/25 00:05:44;;;;;;;0.43;0.40;;;;;;;;;;2027153;29;20044;-53
2023/12/25 00:06:45;;;;;;;0.52;0.40;;;;;;;;;;2026398;29;20518;-53
2023/12/25 00:07:45;;;;;;;0.55;0.50;;;;;;;;;;2027469;29;20069;-54
2023/12/25 00:08:48;;;;;;;1.92;0.43;;;;;;;;;;2027289;29;20044;-52
2023/12/25 00:09:49;;;;;;;1.85;0.35;;;;;;;;;;2027253;29;20466;-53
2023/12/25 00:10:50;;;;;;;0.45;0.40;;;;;;;;;;2027189;29;20037;-52
2023/12/25 00:11:51;;;;;;;2.17;0.47;;;;;;;;;;2027203;29;20045;-53
2023/12/25 00:12:51;;;;;;;0.50;0.28;;;;;;;;;;2026452;29;20370;-53
2023/12/25 00:13:54;;;;;;;0.40;0.30;;;;;;;;;;2027390;29;20469;-54
2023/12/25 00:14:55;;;;;;;0.70;0.40;;;;;;;;;;2027197;29;20041;-53
2023/12/25 00:15:56;;;;;;;1.45;0.38;;;;;;;;;;2026395;29;20504;-54
2023/12/25 00:16:57;;;;;;;1.17;0.43;;;;;;;;;;2027402;29;20118;-53
2023/12/25 00:17:58;;;;;;;0.32;0.30;;;;;;;;;;2026096;29;20469;-52
2023/12/25 00:18:58;;;;;;;1.42;0.50;;;;;;;;;;2027188;29;20036;-52
2023/12/25 00:19:59;;;;;;;0.73;0.40;;;;;;;;;;2027311;29;20033;-52
2023/12/25 00:21:00;;;;;;;1.02;0.50;;;;;;;;;;2026158;29;20052;-53
2023/12/25 00:22:00;;;;;;;0.45;0.30;;;;;;;;;;2027464;29;20114;-53
2023/12/25 00:23:01;;;;;;;1.20;0.50;;;;;;;;;;2027372;29;20048;-53
2023/12/25 00:24:03;;;;;;;0.15;0.15;;;;;;;;;;2026673;29;20441;-54
2023/12/25 00:25:04;;;;;;;3.05;0.88;;;;;;;;;;2026934;29;20462;-53
2023/12/25 00:26:04;;;;;;;1.02;0.43;;;;;;;;;;2026974;29;20044;-53
2023/12/25 00:27:05;;;;;;;0.68;0.40;;;;;;;;;;2027212;29;20079;-53
2023/12/25 00:28:06;;;;;;;0.68;0.40;;;;;;;;;;2026313;29;20104;-53
2023/12/25 00:29:09;;;;;;;1.00;0.40;;;;;;;;;;2018781;29;20051;-52
2023/12/25 00:30:10;;;;;;;0.47;0.17;;;;;;;;;;2018836;29;20033;-53
2023/12/25 00:31:10;;;;;;;0.55;0.32;;;;;;;;;;2018907;29;20049;-52
2023/12/25 00:32:11;;;;;;;0.60;0.30;;;;;;;;;;2010974;29;20042;-52
2023/12/25 00:33:12;;;;;;;1.23;0.52;;;;;;;;;;2018624;29;20041;-53
2023/12/25 00:34:13;;;;;;;1.75;0.40;;;;;;;;;;2018037;29;20099;-54
2023/12/25 00:35:13;;;;;;;1.40;0.50;;;;;;;;;;2018984;29;20048;-53
2023/12/25 00:36:14;;;;;;;0.22;0.20;;;;;;;;;;2027053;29;20088;-53
2023/12/25 00:37:17;;;;;;;1.10;0.57;;;;;;;;;;2026883;29;20469;-53
2023/12/25 00:38:17;;;;;;;0.60;0.40;;;;;;;;;;2026960;29;20040;-53
2023/12/25 00:39:18;;;;;;;1.77;0.32;;;;;;;;;;2026933;29;20043;-52
2023/12/25 00:40:20;;;;;;;1.00;0.52;;;;;;;;;;2027059;29;20033;-54
2023/12/25 00:41:22;;;;;;;1.00;0.55;;;;;;;;;;2026836;29;20036;-53
2023/12/25 00:42:23;;;;;;;1.20;0.50;;;;;;;;;;2018389;29;20153;-52
2023/12/25 00:43:24;;;;;;;0.68;0.30;;;;;;;;;;2018491;29;20462;-53
2023/12/25 00:44:26;;;;;;;1.45;0.35;;;;;;;;;;2026962;29;20055;-54
2023/12/25 00:45:28;;;;;;;0.82;0.40;;;;;;;;;;2018558;29;20044;-52
2023/12/25 00:46:29;;;;;;;1.92;0.30;;;;;;;;;;2018709;29;20036;-53
2023/12/25 00:47:29;;;;;;;0.65;0.35;;;;;;;;;;2026833;29;20047;-52
2023/12/25 00:48:30;;;;;;;0.77;0.30;;;;;;;;;;2027041;29;20044;-54
2023/12/25 00:49:33;;;;;;;0.50;0.32;;;;;;;;;;2026164;29;20036;-53
2023/12/25 00:50:33;;;;;;;0.47;0.30;;;;;;;;;;2025625;29;20048;-53
2023/12/25 00:51:34;;;;;;;0.73;0.28;;;;;;;;;;2027112;29;20036;-53
2023/12/25 00:52:35;;;;;;;0.45;0.32;;;;;;;;;;2025804;29;20048;-53
2023/12/25 00:53:36;;;;;;;0.50;0.30;;;;;;;;;;2026511;29;20028;-53
2023/12/25 00:54:37;;;;;;;0.50;0.30;;;;;;;;;;2026913;29;20363;-53
2023/12/25 00:55:38;;;;;;;1.27;0.60;;;;;;;;;;2026466;29;20052;-52
2023/12/25 00:56:38;;;;;;;0.82;0.30;;;;;;;;;;2027072;29;20041;-52
2023/12/25 00:57:39;;;;;;;0.63;0.25;;;;;;;;;;2026209;29;20049;-53
2023/12/25 00:58:40;;;;;;;1.48;0.60;;;;;;;;;;2026692;29;20048;-53
2023/12/25 00:59:40;;;;;;;0.20;0.20;;;;;;;;;;2025922;29;20430;-53
2023/12/25 01:00:41;;;;;;;0.60;0.30;;;;;;;;;;2026848;29;20039;-52
2023/12/25 01:01:42;;;;;;;1.10;0.30;;;;;;;;;;2018644;29;20103;-52
2023/12/25 01:02:43;;;;;;;1.10;0.50;;;;;;;;;;2017962;29;20049;-52
2023/12/25 01:03:43;;;;;;;0.85;0.28;;;;;;;;;;2027179;29;20051;-53
2023/12/25 01:04:44;;;;;;;0.57;0.30;;;;;;;;;;2026033;29;20052;-53
2023/12/25 01:05:45;;;;;;;1.67;0.50;;;;;;;;;;2026311;29;20048;-53
2023/12/25 01:06:46;;;;;;;1.10;0.38;;;;;;;;;;2017492;29;20050;-53
2023/12/25 01:07:46;;;;;;;0.60;0.50;;;;;;;;;;2018727;29;20139;-53
2023/12/25 01:08:48;;;;;;;1.50;0.45;;;;;;;;;;2018096;29;20053;-54
2023/12/25 01:09:49;;;;;;;0.45;0.30;;;;;;;;;;2018609;29;20029;-54
2023/12/25 01:10:49;;;;;;;0.45;0.22;;;;;;;;;;2025460;29;20064;-53
2023/12/25 01:11:50;;;;;;;0.52;0.25;;;;;;;;;;2026190;29;20041;-53
2023/12/25 01:12:51;;;;;;;0.82;0.40;;;;;;;;;;2018730;29;20048;-53
2023/12/25 01:13:52;;;;;;;0.82;0.35;;;;;;;;;;2018643;29;20155;-52
2023/12/25 01:14:52;;;;;;;0.20;0.20;;;;;;;;;;2018038;29;20049;-53
2023/12/25 01:15:53;;;;;;;0.20;0.17;;;;;;;;;;2026245;29;20083;-53
2023/12/25 01:16:54;;;;;;;0.22;0.17;;;;;;;;;;2026034;29;20052;-53
2023/12/25 01:17:54;;;;;;;2.22;0.40;;;;;;;;;;2026653;29;20053;-52
2023/12/25 01:18:55;;;;;;;0.75;0.40;;;;;;;;;;2026859;29;20044;-53
2023/12/25 01:19:56;;;;;;;0.70;0.35;;;;;;;;;;2025627;29;20052;-53
2023/12/25 01:20:57;;;;;;;1.27;0.20;;;;;;;;;;2026177;29;20048;-53
2023/12/25 01:21:57;;;;;;;1.75;0.43;;;;;;;;;;2026608;29;20040;-52
2023/12/25 01:22:58;;;;;;;0.95;0.45;;;;;;;;;;2026722;29;20370;-53
2023/12/25 01:23:59;;;;;;;0.93;0.30;;;;;;;;;;2026166;29;20056;-54
2023/12/25 01:24:59;;;;;;;0.52;0.47;;;;;;;;;;2026355;29;20053;-53
2023/12/25 01:26:00;;;;;;;0.55;0.30;;;;;;;;;;2026761;29;20496;-52
2023/12/25 01:27:01;;;;;;;0.65;0.20;;;;;;;;;;2018267;29;20074;-54
2023/12/25 01:28:02;;;;;;;1.55;0.60;;;;;;;;;;2018306;29;20048;-53
2023/12/25 01:29:02;;;;;;;3.13;0.45;;;;;;;;;;2018176;29;20045;-53
2023/12/25 01:30:03;;;;;;;0.30;0.30;;;;;;;;;;2017957;29;20057;-53
2023/12/25 01:31:05;;;;;;;0.77;0.45;;;;;;;;;;2026484;29;20092;-52
2023/12/25 01:32:06;;;;;;;0.50;0.25;;;;;;;;;;2026446;29;20103;-54
2023/12/25 01:33:06;;;;;;;0.50;0.30;;;;;;;;;;2026294;29;20044;-52
2023/12/25 01:34:07;;;;;;;1.38;0.47;;;;;;;;;;2025392;29;20060;-54
2023/12/25 01:35:08;;;;;;;0.20;0.20;;;;;;;;;;2026765;29;20041;-52
2023/12/25 01:36:09;;;;;;;0.25;0.17;;;;;;;;;;2026854;29;20052;-52
2023/12/25 01:37:10;;;;;;;2.15;0.73;;;;;;;;;;2026502;29;20044;-53
2023/12/25 01:38:11;;;;;;;1.52;0.30;;;;;;;;;;2017800;29;20097;-52
2023/12/25 01:39:14;;;;;;;0.30;0.30;;;;;;;;;;2018012;29;20040;-52
2023/12/25 01:40:17;;;;;;;0.57;0.40;;;;;;;;;;2026900;29;20032;-52
2023/12/25 01:41:17;;;;;;;1.63;0.20;;;;;;;;;;2026196;29;20044;-52
2023/12/25 01:42:18;;;;;;;0.82;0.57;;;;;;;;;;2018122;29;20505;-52
2023/12/25 01:43:19;;;;;;;0.47;0.30;;;;;;;;;;2018362;29;20033;-52
2023/12/25 01:44:19;;;;;;;2.03;0.55;;;;;;;;;;2017985;29;20101;-53
2023/12/25 01:45:20;;;;;;;0.52;0.32;;;;;;;;;;2018372;29;20029;-54
2023/12/25 01:46:21;;;;;;;0.30;0.30;;;;;;;;;;2026318;29;20043;-53
2023/12/25 01:47:22;;;;;;;0.65;0.38;;;;;;;;;;2025310;29;20469;-52
2023/12/25 01:48:23;;;;;;;2.15;0.50;;;;;;;;;;2018407;29;20055;-53
2023/12/25 01:49:24;;;;;;;0.70;0.40;;;;;;;;;;2017624;29;20056;-52
2023/12/25 01:50:25;;;;;;;0.73;0.40;;;;;;;;;;2026036;29;20461;-53
2023/12/25 01:51:26;;;;;;;0.85;0.20;;;;;;;;;;2026268;29;20045;-53
2023/12/25 01:52:27;;;;;;;0.98;0.30;;;;;;;;;;2026388;29;20032;-52
2023/12/25 01:53:27;;;;;;;0.75;0.30;;;;;;;;;;2025767;29;20540;-53
2023/12/25 01:54:28;;;;;;;0.88;0.20;;;;;;;;;;2026554;29;20032;-53
2023/12/25 01:55:29;;;;;;;0.95;0.40;;;;;;;;;;2026404;29;20520;-52
2023/12/25 01:56:30;;;;;;;0.40;0.20;;;;;;;;;;2018389;29;20049;-53
2023/12/25 01:57:32;;;;;;;0.85;0.45;;;;;;;;;;2018118;29;20032;-52
2023/12/25 01:58:32;;;;;;;0.77;0.22;;;;;;;;;;2025542;29;20036;-55
2023/12/25 01:59:33;;;;;;;0.68;0.50;;;;;;;;;;2018766;29;20045;-52
2023/12/25 02:00:34;;;;;;;0.95;0.40;;;;;;;;;;2011783;29;20485;-52
2023/12/25 02:01:35;;;;;;;1.83;0.43;;;;;;;;;;2011200;29;20049;-55
2023/12/25 02:02:36;;;;;;;1.83;0.93;;;;;;;;;;2018765;29;20057;-53
2023/12/25 02:03:37;;;;;;;0.45;0.30;;;;;;;;;;2018707;29;20041;-53
2023/12/25 02:04:37;;;;;;;1.05;0.47;;;;;;;;;;2018311;29;20056;-53
2023/12/25 02:05:38;;;;;;;0.75;0.30;;;;;;;;;;2025295;29;20124;-52
2023/12/25 02:06:39;;;;;;;1.17;0.45;;;;;;;;;;2025840;29;20035;-52
2023/12/25 02:07:40;;;;;;;0.45;0.38;;;;;;;;;;2018369;29;20052;-53
2023/12/25 02:08:41;;;;;;;0.60;0.50;;;;;;;;;;2017418;29;20057;-52
2023/12/25 02:09:47;;;;;;;0.52;0.30;;;;;;;;;;2010421;29;20079;-54
2023/12/25 02:10:47;;;;;;;1.58;0.50;;;;;;;;;;1996451;29;20050;-55
2023/12/25 02:11:48;;;;;;;1.00;0.40;;;;;;;;;;2009956;29;20049;-54
2023/12/25 02:12:49;;;;;;;0.47;0.30;;;;;;;;;;2025098;29;20100;-52
2023/12/25 02:13:51;;;;;;;1.25;0.40;;;;;;;;;;2010554;29;20041;-53
2023/12/25 02:14:51;;;;;;;1.13;0.52;;;;;;;;;;2002855;29;20041;-52
2023/12/25 02:15:52;;;;;;;2.70;0.50;;;;;;;;;;2010280;29;20490;-53
2023/12/25 02:16:53;;;;;;;0.40;0.30;;;;;;;;;;2010513;29;20034;-52
2023/12/25 02:17:54;;;;;;;0.75;0.50;;;;;;;;;;2017875;29;20065;-52
2023/12/25 02:18:55;;;;;;;0.52;0.28;;;;;;;;;;2010384;29;20062;-54
2023/12/25 02:19:56;;;;;;;0.57;0.30;;;;;;;;;;2017947;29;20041;-53
2023/12/25 02:20:56;;;;;;;1.20;0.43;;;;;;;;;;2018122;29;20437;-52
2023/12/25 02:21:57;;;;;;;0.65;0.40;;;;;;;;;;2017930;29;20458;-53
2023/12/25 02:22:59;;;;;;;0.10;0.10;;;;;;;;;;2026043;29;20055;-54
2023/12/25 02:24:00;;;;;;;1.98;0.20;;;;;;;;;;2025559;29;20044;-53
2023/12/25 02:25:07;;;;;;;0.80;0.40;;;;;;;;;;2026216;29;20055;-53
2023/12/25 02:26:08;;;;;;;0.32;0.22;;;;;;;;;;2025985;29;20056;-53
2023/12/25 02:27:08;;;;;;;0.50;0.22;;;;;;;;;;2025773;29;20040;-52
2023/12/25 02:28:09;;;;;;;1.40;0.40;;;;;;;;;;2025590;29;20040;-52
2023/12/25 02:29:10;;;;;;;0.40;0.32;;;;;;;;;;2017676;29;20421;-53
2023/12/25 02:30:10;;;;;;;0.30;0.22;;;;;;;;;;2017649;29;20053;-53
2023/12/25 02:31:11;;;;;;;1.42;0.32;;;;;;;;;;2025625;29;20045;-52
2023/12/25 02:32:12;;;;;;;0.10;0.10;;;;;;;;;;2018193;29;20506;-53
2023/12/25 02:33:13;;;;;;;1.48;0.30;;;;;;;;;;2017677;29;20159;-54
2023/12/25 02:34:14;;;;;;;0.57;0.20;;;;;;;;;;2024521;29;20044;-52
2023/12/25 02:35:14;;;;;;;1.67;0.35;;;;;;;;;;2025723;29;20057;-54
2023/12/25 02:36:15;;;;;;;1.05;0.40;;;;;;;;;;2025826;29;20048;-53
2023/12/25 02:37:16;;;;;;;1.30;0.20;;;;;;;;;;2025840;29;20040;-52
2023/12/25 02:38:16;;;;;;;1.75;0.20;;;;;;;;;;2025524;29;20422;-52
2023/12/25 02:39:17;;;;;;;0.75;0.22;;;;;;;;;;2025541;29;20469;-53
2023/12/25 02:40:18;;;;;;;1.13;0.30;;;;;;;;;;2017774;29;20052;-53
2023/12/25 02:41:19;;;;;;;0.32;0.20;;;;;;;;;;2017909;29;20069;-53
2023/12/25 02:42:19;;;;;;;0.40;0.17;;;;;;;;;;2017786;29;20033;-52
2023/12/25 02:43:20;;;;;;;1.13;0.45;;;;;;;;;;2018146;29;20036;-53
2023/12/25 02:44:21;;;;;;;0.38;0.20;;;;;;;;;;2026212;29;20381;-53
2023/12/25 02:45:22;;;;;;;0.35;0.30;;;;;;;;;;2025723;29;20060;-53
2023/12/25 02:46:22;;;;;;;0.75;0.40;;;;;;;;;;2026499;29;20043;-53
2023/12/25 02:47:23;;;;;;;1.15;0.28;;;;;;;;;;2017953;29;20433;-52
2023/12/25 02:48:24;;;;;;;1.00;0.35;;;;;;;;;;2017957;29;20045;-52
2023/12/25 02:49:25;;;;;;;0.22;0.22;;;;;;;;;;2025466;29;20028;-52
2023/12/25 02:50:26;;;;;;;0.50;0.30;;;;;;;;;;2018249;29;20486;-52
2023/12/25 02:51:26;;;;;;;1.17;0.50;;;;;;;;;;2018216;29;20065;-53
2023/12/25 02:52:27;;;;;;;0.55;0.30;;;;;;;;;;2027111;29;20040;-54
2023/12/25 02:53:30;;;;;;;0.75;0.25;;;;;;;;;;2026770;29;20047;-53
2023/12/25 02:54:30;;;;;;;2.58;0.50;;;;;;;;;;2028351;29;20028;-52
2023/12/25 02:55:31;;;;;;;0.43;0.30;;;;;;;;;;2027425;29;20037;-51
2023/12/25 02:56:32;;;;;;;1.42;0.43;;;;;;;;;;2026835;29;20524;-53
2023/12/25 02:57:33;;;;;;;0.70;0.40;;;;;;;;;;2027627;29;20043;-52
2023/12/25 02:58:33;;;;;;;0.88;0.43;;;;;;;;;;2018754;29;20045;-53
2023/12/25 02:59:34;;;;;;;0.73;0.30;;;;;;;;;;2019336;29;20060;-52
2023/12/25 03:00:35;;;;;;;0.28;0.13;;;;;;;;;;2026750;29;20048;-52
2023/12/25 03:01:35;;;;;;;1.13;0.43;;;;;;;;;;2019562;29;20426;-53
2023/12/25 03:02:36;;;;;;;0.50;0.40;;;;;;;;;;2019250;29;20036;-52
2023/12/25 03:03:37;;;;;;;1.02;0.38;;;;;;;;;;2027932;29;20035;-52
2023/12/25 03:04:37;;;;;;;0.93;0.30;;;;;;;;;;2027173;29;20044;-53
2023/12/25 03:05:38;;;;;;;0.40;0.30;;;;;;;;;;2019125;29;20052;-52
2023/12/25 03:06:39;;;;;;;0.60;0.30;;;;;;;;;;2018971;29;20462;-52
2023/12/25 03:07:40;;;;;;;1.50;0.40;;;;;;;;;;2027510;29;20035;-52
2023/12/25 03:08:40;;;;;;;0.50;0.40;;;;;;;;;;2027000;29;20481;-53
2023/12/25 03:09:41;;;;;;;0.73;0.40;;;;;;;;;;2027362;29;20048;-52
2023/12/25 03:10:42;;;;;;;1.00;0.40;;;;;;;;;;2027111;29;20051;-52
2023/12/25 03:11:43;;;;;;;0.85;0.32;;;;;;;;;;2027298;29;20481;-51
2023/12/25 03:12:44;;;;;;;0.45;0.20;;;;;;;;;;2027721;29;20036;-52
2023/12/25 03:13:45;;;;;;;0.85;0.40;;;;;;;;;;2019214;29;20045;-52
2023/12/25 03:14:47;;;;;;;5.28;0.70;;;;;;;;;;2018866;29;20525;-52
2023/12/25 03:15:48;;;;;;;0.40;0.30;;;;;;;;;;2027333;29;20040;-53
2023/12/25 03:16:48;;;;;;;0.73;0.43;;;;;;;;;;2027096;29;20484;-53
2023/12/25 03:17:49;;;;;;;0.45;0.40;;;;;;;;;;2027801;29;20037;-52
2023/12/25 03:18:50;;;;;;;0.73;0.20;;;;;;;;;;2027551;29;20120;-53
2023/12/25 03:19:51;;;;;;;0.70;0.40;;;;;;;;;;2027640;29;20036;-52
2023/12/25 03:20:51;;;;;;;0.68;0.30;;;;;;;;;;2027264;29;20070;-53
2023/12/25 03:21:52;;;;;;;0.50;0.40;;;;;;;;;;2026855;29;20048;-53
2023/12/25 03:22:53;;;;;;;1.45;0.60;;;;;;;;;;2027208;29;20405;-52
2023/12/25 03:23:53;;;;;;;1.88;0.73;;;;;;;;;;2027445;29;20044;-52
2023/12/25 03:24:54;;;;;;;0.88;0.50;;;;;;;;;;2027663;29;20045;-52
2023/12/25 03:25:56;;;;;;;1.27;0.47;;;;;;;;;;2019257;29;20056;-54
2023/12/25 03:26:57;;;;;;;0.40;0.25;;;;;;;;;;2019086;29;20057;-52
2023/12/25 03:27:58;;;;;;;2.83;0.50;;;;;;;;;;2019355;29;20482;-52
2023/12/25 03:28:59;;;;;;;0.88;0.40;;;;;;;;;;2018550;29;20099;-54
2023/12/25 03:29:59;;;;;;;6.18;0.60;;;;;;;;;;2010805;29;20049;-53
2023/12/25 03:31:00;;;;;;;1.08;0.55;;;;;;;;;;2019240;29;20036;-52
2023/12/25 03:32:01;;;;;;;1.02;0.40;;;;;;;;;;2027468;29;20056;-53
2023/12/25 03:33:02;;;;;;;0.77;0.38;;;;;;;;;;2026835;29;20044;-52
2023/12/25 03:34:03;;;;;;;0.70;0.40;;;;;;;;;;2019310;29;20052;-52
2023/12/25 03:35:04;;;;;;;0.35;0.30;;;;;;;;;;2019205;29;20092;-52
2023/12/25 03:36:05;;;;;;;0.30;0.28;;;;;;;;;;2027251;29;20424;-52
2023/12/25 03:37:06;;;;;;;0.73;0.30;;;;;;;;;;2026840;29;20060;-53
2023/12/25 03:38:07;;;;;;;1.05;0.50;;;;;;;;;;2026008;29;20473;-52
2023/12/25 03:39:08;;;;;;;0.95;0.60;;;;;;;;;;2026706;29;20052;-53
2023/12/25 03:40:08;;;;;;;0.75;0.60;;;;;;;;;;2027616;29;20036;-53
2023/12/25 03:41:09;;;;;;;0.85;0.40;;;;;;;;;;2018602;29;20096;-52
2023/12/25 03:42:10;;;;;;;0.17;0.10;;;;;;;;;;2019020;29;20037;-52
2023/12/25 03:43:11;;;;;;;0.30;0.20;;;;;;;;;;2027409;29;20470;-52
2023/12/25 03:44:12;;;;;;;1.65;0.65;;;;;;;;;;2027301;29;20465;-51
2023/12/25 03:45:12;;;;;;;1.77;0.50;;;;;;;;;;2027271;29;20040;-53
2023/12/25 03:46:13;;;;;;;0.73;0.22;;;;;;;;;;2018937;29;20108;-53
2023/12/25 03:47:14;;;;;;;0.77;0.40;;;;;;;;;;2018795;29;20478;-52
2023/12/25 03:48:16;;;;;;;1.23;0.43;;;;;;;;;;2027087;29;20389;-53
2023/12/25 03:49:17;;;;;;;1.52;0.75;;;;;;;;;;2027224;29;20029;-53
2023/12/25 03:50:17;;;;;;;2.03;0.70;;;;;;;;;;2026541;29;20115;-52
2023/12/25 03:51:18;;;;;;;1.33;0.40;;;;;;;;;;2025940;29;20053;-53
2023/12/25 03:52:19;;;;;;;0.40;0.25;;;;;;;;;;2027255;29;20048;-52
2023/12/25 03:53:20;;;;;;;0.70;0.45;;;;;;;;;;2019167;29;20040;-53
2023/12/25 03:54:21;;;;;;;0.43;0.40;;;;;;;;;;2018925;29;20417;-52
2023/12/25 03:55:21;;;;;;;0.63;0.30;;;;;;;;;;2027188;29;20037;-53
2023/12/25 03:56:23;;;;;;;0.75;0.30;;;;;;;;;;2018910;29;20041;-52
2023/12/25 03:57:24;;;;;;;1.13;0.30;;;;;;;;;;2011302;29;20105;-52
2023/12/25 03:58:25;;;;;;;0.88;0.40;;;;;;;;;;2019135;29;20068;-52
2023/12/25 03:59:25;;;;;;;1.02;0.40;;;;;;;;;;2026428;29;20450;-53
2023/12/25 04:00:27;;;;;;;0.68;0.47;;;;;;;;;;2026660;29;20508;-52
2023/12/25 04:01:28;;;;;;;0.30;0.25;;;;;;;;;;2026934;29;20041;-51
2023/12/25 04:02:28;;;;;;;0.75;0.38;;;;;;;;;;2018606;29;20041;-53
2023/12/25 04:03:29;;;;;;;0.80;0.45;;;;;;;;;;2019363;29;20037;-52
2023/12/25 04:04:30;;;;;;;1.13;0.45;;;;;;;;;;2019120;29;20037;-52
2023/12/25 04:05:30;;;;;;;0.65;0.50;;;;;;;;;;2018758;29;20041;-52
2023/12/25 04:06:31;;;;;;;0.52;0.30;;;;;;;;;;2018915;29;20106;-52
2023/12/25 04:07:32;;;;;;;0.52;0.28;;;;;;;;;;2018620;29;20045;-52
2023/12/25 04:08:33;;;;;;;1.65;0.50;;;;;;;;;;2018857;29;20462;-52
2023/12/25 04:09:33;;;;;;;0.82;0.30;;;;;;;;;;2019455;29;20049;-52
2023/12/25 04:10:34;;;;;;;0.65;0.47;;;;;;;;;;2019587;29;20092;-52
2023/12/25 04:11:35;;;;;;;0.98;0.40;;;;;;;;;;2019731;29;20048;-52
2023/12/25 04:12:36;;;;;;;1.17;0.57;;;;;;;;;;2018757;29;20037;-53
2023/12/25 04:13:37;;;;;;;0.52;0.30;;;;;;;;;;2019016;29;20103;-52
2023/12/25 04:14:38;;;;;;;0.73;0.30;;;;;;;;;;2011130;29;20049;-53
2023/12/25 04:15:38;;;;;;;1.80;0.50;;;;;;;;;;2011461;29;20038;-52
2023/12/25 04:16:39;;;;;;;0.95;0.38;;;;;;;;;;2018769;29;20049;-53
2023/12/25 04:17:40;;;;;;;2.83;0.50;;;;;;;;;;2018475;29;20053;-52
2023/12/25 04:18:41;;;;;;;1.83;0.57;;;;;;;;;;2018729;29;20490;-53
2023/12/25 04:19:42;;;;;;;0.68;0.30;;;;;;;;;;2018737;29;20048;-53
2023/12/25 04:20:42;;;;;;;0.75;0.35;;;;;;;;;;2019041;29;20052;-52
2023/12/25 04:21:43;;;;;;;1.23;0.57;;;;;;;;;;2018948;29;20056;-52
2023/12/25 04:22:44;;;;;;;1.05;0.30;;;;;;;;;;2019693;29;20045;-52
2023/12/25 04:23:45;;;;;;;1.63;0.47;;;;;;;;;;2026537;29;20139;-52
2023/12/25 04:24:46;;;;;;;0.70;0.40;;;;;;;;;;2026457;29;20060;-52
2023/12/25 04:25:47;;;;;;;1.42;0.30;;;;;;;;;;2019101;29;20045;-53
2023/12/25 04:26:47;;;;;;;0.95;0.35;;;;;;;;;;2018836;29;20057;-53
2023/12/25 04:27:50;;;;;;;1.13;0.20;;;;;;;;;;2010689;29;20052;-52
2023/12/25 04:28:51;;;;;;;1.23;0.40;;;;;;;;;;2011496;29;20042;-52
2023/12/25 04:29:51;;;;;;;0.65;0.20;;;;;;;;;;2018726;29;20401;-52
2023/12/25 04:30:52;;;;;;;1.52;0.40;;;;;;;;;;2025816;29;20072;-52
2023/12/25 04:31:53;;;;;;;6.40;0.52;;;;;;;;;;2026368;29;20040;-52
2023/12/25 04:32:54;;;;;;;0.30;0.20;;;;;;;;;;2018492;29;20410;-53
2023/12/25 04:33:54;;;;;;;0.38;0.32;;;;;;;;;;2018576;29;20048;-52
2023/12/25 04:34:56;;;;;;;0.38;0.20;;;;;;;;;;2025733;29;20056;-52
2023/12/25 04:35:56;;;;;;;1.35;0.32;;;;;;;;;;2026434;29;20040;-52
2023/12/25 04:36:57;;;;;;;0.30;0.30;;;;;;;;;;2018714;29;20053;-52
2023/12/25 04:37:58;;;;;;;0.55;0.40;;;;;;;;;;2018801;29;20355;-52
2023/12/25 04:38:58;;;;;;;0.95;0.55;;;;;;;;;;2018645;29;20060;-52
2023/12/25 04:39:59;;;;;;;1.17;0.65;;;;;;;;;;2010996;29;20049;-51
2023/12/25 04:41:00;;;;;;;0.63;0.35;;;;;;;;;;2018713;29;20032;-52
2023/12/25 04:42:01;;;;;;;0.65;0.40;;;;;;;;;;2018761;29;20414;-52
2023/12/25 04:43:02;;;;;;;0.85;0.40;;;;;;;;;;2018294;29;20109;-52
2023/12/25 04:44:03;;;;;;;0.93;0.50;;;;;;;;;;2019196;29;20053;-53
2023/12/25 04:45:05;;;;;;;1.38;0.30;;;;;;;;;;2026063;29;20048;-52
2023/12/25 04:46:05;;;;;;;1.00;0.60;;;;;;;;;;2026189;29;20533;-52
2023/12/25 04:47:06;;;;;;;2.80;0.90;;;;;;;;;;2018532;29;20056;-53
2023/12/25 04:48:07;;;;;;;0.50;0.47;;;;;;;;;;2018252;29;20101;-52
2023/12/25 04:49:08;;;;;;;1.13;0.47;;;;;;;;;;2026481;29;20119;-51
2023/12/25 04:50:08;;;;;;;0.93;0.40;;;;;;;;;;2017531;29;20049;-53
2023/12/25 04:51:10;;;;;;;1.80;0.40;;;;;;;;;;2017826;29;20532;-52
2023/12/25 04:52:11;;;;;;;0.30;0.10;;;;;;;;;;2018677;29;20047;-52
2023/12/25 04:53:11;;;;;;;1.42;0.63;;;;;;;;;;2018264;29;20589;-53
2023/12/25 04:54:12;;;;;;;3.20;0.57;;;;;;;;;;2026301;29;20524;-53
2023/12/25 04:55:13;;;;;;;1.35;0.35;;;;;;;;;;2025728;29;20048;-52
2023/12/25 04:56:14;;;;;;;0.85;0.30;;;;;;;;;;2018260;29;20159;-53
2023/12/25 04:57:14;;;;;;;0.90;0.43;;;;;;;;;;2018932;29;20045;-52
2023/12/25 04:58:15;;;;;;;2.00;0.73;;;;;;;;;;2019200;29;20064;-52
2023/12/25 04:59:16;;;;;;;1.05;0.43;;;;;;;;;;2025991;29;20485;-53
2023/12/25 05:00:17;;;;;;;1.13;0.40;;;;;;;;;;2018605;29;20057;-52
2023/12/25 05:01:17;;;;;;;0.47;0.30;;;;;;;;;;2018792;29;20474;-53
2023/12/25 05:02:18;;;;;;;0.98;0.40;;;;;;;;;;2018930;29;20044;-51
2023/12/25 05:03:19;;;;;;;1.10;0.50;;;;;;;;;;2019023;29;20029;-53
2023/12/25 05:04:21;;;;;;;1.17;0.30;;;;;;;;;;2018702;29;20049;-52
2023/12/25 05:05:21;;;;;;;1.27;0.50;;;;;;;;;;2018173;29;20417;-52
2023/12/25 05:06:23;;;;;;;2.10;0.52;;;;;;;;;;2025568;29;20057;-52
2023/12/25 05:07:23;;;;;;;0.93;0.50;;;;;;;;;;2026071;29;20048;-52
2023/12/25 05:08:24;;;;;;;1.50;0.50;;;;;;;;;;2025926;29;20048;-52
2023/12/25 05:09:25;;;;;;;1.13;0.40;;;;;;;;;;2018677;29;20124;-53
2023/12/25 05:10:25;;;;;;;1.05;0.30;;;;;;;;;;2018433;29;20169;-52
2023/12/25 05:11:27;;;;;;;0.77;0.40;;;;;;;;;;2026332;29;20040;-52
2023/12/25 05:12:28;;;;;;;0.85;0.30;;;;;;;;;;2018420;29;20060;-52
2023/12/25 05:13:30;;;;;;;0.65;0.50;;;;;;;;;;2018301;29;20077;-52
2023/12/25 05:14:31;;;;;;;2.70;0.60;;;;;;;;;;2017796;29;20045;-53
2023/12/25 05:15:31;;;;;;;0.90;0.50;;;;;;;;;;2010663;29;20048;-52
2023/12/25 05:16:32;;;;;;;1.20;0.50;;;;;;;;;;2018818;29;20056;-52
2023/12/25 05:17:33;;;;;;;0.40;0.30;;;;;;;;;;2019480;29;20398;-51
2023/12/25 05:18:33;;;;;;;0.50;0.32;;;;;;;;;;2019007;29;20045;-55
2023/12/25 05:19:34;;;;;;;0.47;0.30;;;;;;;;;;2019969;29;20036;-51
2023/12/25 05:20:35;;;;;;;0.98;0.50;;;;;;;;;;2020207;29;20068;-52
2023/12/25 05:21:36;;;;;;;1.90;0.43;;;;;;;;;;2019240;29;20053;-52
2023/12/25 05:22:37;;;;;;;0.98;0.40;;;;;;;;;;2019243;29;20477;-53
2023/12/25 05:23:38;;;;;;;0.68;0.47;;;;;;;;;;2019136;29;20492;-52
2023/12/25 05:24:38;;;;;;;1.42;0.40;;;;;;;;;;2018780;29;20060;-52
2023/12/25 05:25:39;;;;;;;0.40;0.32;;;;;;;;;;2018859;29;20053;-52
2023/12/25 05:26:40;;;;;;;0.73;0.47;;;;;;;;;;2019157;29;20045;-51
2023/12/25 05:27:41;;;;;;;1.95;0.40;;;;;;;;;;2018862;29;20135;-52
2023/12/25 05:28:41;;;;;;;1.48;0.60;;;;;;;;;;2018937;29;20045;-53
2023/12/25 05:29:42;;;;;;;1.60;0.50;;;;;;;;;;2018844;29;20056;-51
2023/12/25 05:30:43;;;;;;;2.72;0.52;;;;;;;;;;2018824;29;20088;-52
2023/12/25 05:31:44;;;;;;;0.77;0.40;;;;;;;;;;2018994;29;20033;-51
2023/12/25 05:32:44;;;;;;;0.82;0.40;;;;;;;;;;2019067;29;20072;-52
2023/12/25 05:33:45;;;;;;;1.27;0.57;;;;;;;;;;2018461;29;20465;-52
2023/12/25 05:34:46;;;;;;;3.33;0.63;;;;;;;;;;2017865;29;20398;-52
2023/12/25 05:35:46;;;;;;;0.52;0.40;;;;;;;;;;2018543;29;20072;-53
2023/12/25 05:36:47;;;;;;;0.60;0.30;;;;;;;;;;2019063;29;20044;-52
2023/12/25 05:37:48;;;;;;;0.60;0.38;;;;;;;;;;2019243;29;20052;-53
2023/12/25 05:38:49;;;;;;;1.55;0.28;;;;;;;;;;2019077;29;20047;-53
2023/12/25 05:39:49;;;;;;;1.02;0.50;;;;;;;;;;2018949;29;20397;-52
2023/12/25 05:40:50;;;;;;;0.20;0.20;;;;;;;;;;2018827;29;20037;-52
2023/12/25 05:41:51;;;;;;;0.52;0.45;;;;;;;;;;2018876;29;20049;-52
2023/12/25 05:42:52;;;;;;;0.30;0.20;;;;;;;;;;2018847;29;20060;-52
2023/12/25 05:43:52;;;;;;;0.35;0.20;;;;;;;;;;2019054;29;20064;-52
2023/12/25 05:44:53;;;;;;;0.80;0.40;;;;;;;;;;2018830;29;20478;-52
2023/12/25 05:45:54;;;;;;;0.63;0.40;;;;;;;;;;2019134;29;20040;-52
2023/12/25 05:46:55;;;;;;;1.85;0.43;;;;;;;;;;2018629;29;20064;-52
2023/12/25 05:47:56;;;;;;;1.65;0.47;;;;;;;;;;2019113;29;20454;-52
2023/12/25 05:48:57;;;;;;;0.95;0.40;;;;;;;;;;2018552;29;20053;-52
2023/12/25 05:49:58;;;;;;;1.33;0.40;;;;;;;;;;2018874;29;20052;-52
2023/12/25 05:50:58;;;;;;;0.57;0.30;;;;;;;;;;2019015;29;20033;-52
2023/12/25 05:51:59;;;;;;;0.85;0.30;;;;;;;;;;2018809;29;20044;-52
2023/12/25 05:53:00;;;;;;;1.42;0.43;;;;;;;;;;2018652;29;20516;-53
2023/12/25 05:54:00;;;;;;;0.80;0.30;;;;;;;;;;2018618;29;20044;-52
2023/12/25 05:55:01;;;;;;;0.45;0.28;;;;;;;;;;2018629;29;20044;-52
2023/12/25 05:56:03;;;;;;;0.30;0.20;;;;;;;;;;2018354;29;20056;-52
2023/12/25 05:57:04;;;;;;;1.08;0.40;;;;;;;;;;2018986;29;20052;-52
2023/12/25 05:58:05;;;;;;;2.25;0.60;;;;;;;;;;2018442;29;20150;-52
2023/12/25 05:59:05;;;;;;;0.20;0.20;;;;;;;;;;2018773;29;20047;-52
2023/12/25 06:00:06;;;;;;;1.30;0.30;;;;;;;;;;2018681;29;20056;-52
2023/12/25 06:01:13;;;;;;;0.45;0.30;;;;;;;;;;2018851;29;20037;-52
2023/12/25 06:02:14;;;;;;;1.25;0.25;;;;;;;;;;2018650;29;20474;-53
2023/12/25 06:03:14;;;;;;;0.68;0.30;;;;;;;;;;2018555;29;20127;-54
2023/12/25 06:04:15;;;;;;;0.90;0.30;;;;;;;;;;2018849;29;20060;-52
2023/12/25 06:05:16;;;;;;;0.47;0.25;;;;;;;;;;2018805;29;20029;-53